Time;durP1;ratioP1;P1;durP2;ratioP2;P2;SDS_P1;SDS_P2;PMS_P1;PMS_P2;Temp;Humidity;BMP_temperature;BMP_pressure;BME280_temperature;BME280_humidity;BME280_pressure;Samples;Min_cycle;Max_cycle;Signal;HPM_P1;HPM_P2
2023/09/10 16:09:12;;;;;;;;;9.75;8.75;;;;;32.02;32.71;100907.00;5138125;27;45362;-83
2023/09/10 16:11:38;;;;;;;;;9.50;9.50;;;;;32.06;33.55;100893.69;5109469;27;45233;-81
2023/09/10 16:14:03;;;;;;;;;12.50;10.75;;;;;32.23;32.87;100906.34;5115446;27;45336;-79
2023/09/10 16:17:07;;;;;;;;;10.25;9.25;;;;;32.08;34.11;100859.38;5107380;22;45402;-70
2023/09/10 16:20:04;;;;;;;;;9.25;8.50;;;;;32.43;33.53;100903.03;5049321;28;45664;-72
2023/09/10 16:22:33;;;;;;;;;9.00;9.00;;;;;32.42;33.17;100891.09;5039696;28;45648;-75
2023/09/10 16:25:04;;;;;;;;;9.50;9.50;;;;;32.31;32.71;100866.72;5050111;28;45562;-73
2023/09/10 16:27:31;;;;;;;;;9.75;9.75;;;;;32.22;32.56;100852.13;5054068;28;45615;-73
2023/09/10 16:30:00;;;;;;;;;8.50;8.25;;;;;32.57;33.38;100899.41;5049713;28;47140;-70
2023/09/10 16:32:28;;;;;;;;;10.25;9.50;;;;;32.56;32.70;100888.53;5046571;28;45702;-70
2023/09/10 16:34:53;;;;;;;;;11.50;10.50;;;;;32.54;33.17;100885.13;5050636;28;45433;-71
2023/09/10 16:37:18;;;;;;;;;11.00;9.50;;;;;32.50;32.97;100874.44;5053158;28;45683;-73
2023/09/10 16:39:44;;;;;;;;;8.50;7.75;;;;;32.71;32.44;100892.16;5052174;28;45851;-70
2023/09/10 16:42:10;;;;;;;;;10.00;10.00;;;;;32.63;32.81;100872.97;5051373;28;45497;-71
2023/09/10 16:44:35;;;;;;;;;10.25;8.00;;;;;32.71;32.28;100886.66;5046192;28;45470;-70
2023/09/10 16:47:01;;;;;;;;;9.25;9.25;;;;;32.72;32.24;100882.84;5069140;27;45712;-70
2023/09/10 16:49:28;;;;;;;;;8.25;8.25;;;;;32.53;32.39;100853.00;5057705;28;45452;-70
2023/09/10 16:52:00;;;;;;;;;9.50;8.00;;;;;32.72;32.17;100888.38;5054414;28;45402;-69
2023/09/10 16:54:41;;;;;;;;;9.25;9.00;;;;;32.62;32.32;100868.47;5054960;28;45272;-69
2023/09/10 16:57:09;;;;;;;;;7.50;7.50;;;;;32.57;32.43;100863.47;5047326;28;45380;-68
2023/09/10 16:59:37;;;;;;;;;12.25;11.25;;;;;32.57;32.27;100857.94;5053357;28;46589;-69
2023/09/10 17:02:09;;;;;;;;;10.00;9.25;;;;;32.76;32.58;100888.84;5054361;28;45540;-69
2023/09/10 17:27:43;;;;;;;;;10.00;8.75;;;;;32.58;33.67;100887.31;5023682;28;45463;-68
2023/09/10 17:38:17;;;;;;;;;9.25;9.25;;;;;32.47;33.73;100882.25;4895022;28;45945;-67
2023/09/10 17:41:00;;;;;;;;;9.50;9.50;;;;;32.34;34.10;100866.34;4874630;29;45481;-70
2023/09/10 17:43:54;;;;;;;;;10.50;7.75;;;;;32.19;34.13;100847.00;4875151;29;45598;-67
2023/09/10 17:49:37;;;;;;;;;10.50;10.50;;;;;32.19;35.33;100847.00;4841603;29;46631;-69
2023/09/10 17:52:05;;;;;;;;;10.00;10.00;;;;;32.30;34.75;100876.06;4877095;29;45911;-70
2023/09/10 17:54:31;;;;;;;;;11.00;11.00;;;;;32.20;35.00;100850.63;4959692;28;45539;-70
2023/09/10 18:08:07;;;;;;;;;10.50;10.50;;;;;31.91;35.90;100841.22;4962997;28;45523;-70
2023/09/10 18:10:45;;;;;;;;;9.00;8.25;;;;;32.02;36.13;100868.38;4952053;28;45643;-71
2023/09/10 18:13:14;;;;;;;;;9.00;9.00;;;;;31.96;36.04;100863.63;5054976;28;45533;-71
2023/09/10 18:15:44;;;;;;;;;10.00;10.00;;;;;31.81;35.97;100852.53;5056063;28;45774;-71
2023/09/10 18:18:15;;;;;;;;;15.00;13.00;;;;;31.75;36.16;100858.78;5056452;28;45478;-71
2023/09/10 18:20:46;;;;;;;;;14.00;12.00;;;;;31.84;36.67;100882.50;5053801;28;45684;-71
2023/09/10 18:23:53;;;;;;;;;10.00;10.00;;;;;31.82;36.49;100887.34;5048674;28;45781;-71
2023/09/10 18:30:02;;;;;;;;;11.50;10.00;;;;;31.58;36.57;100881.00;5055450;28;45558;-71
2023/09/10 18:33:18;;;;;;;;;14.00;13.25;;;;;31.51;36.73;100877.28;5052665;28;45542;-71
2023/09/10 18:35:53;;;;;;;;;11.00;11.00;;;;;31.42;37.42;100870.06;5043385;28;45435;-71
2023/09/10 18:38:29;;;;;;;;;13.25;13.25;;;;;31.53;37.36;100910.19;5044855;28;45546;-72
2023/09/10 18:41:12;;;;;;;;;14.75;12.50;;;;;31.19;37.35;100861.75;5038128;28;45508;-72
2023/09/10 18:44:07;;;;;;;;;;;;;;;;;;;;;
2023/09/10 20:17:48;;;;;;;;;21.25;18.50;;;;;29.97;42.23;100971.22;4949448;28;45696;-72
2023/09/10 20:27:07;;;;;;;;;24.00;19.50;;;;;29.77;42.60;100960.56;4886772;29;45842;-72
2023/09/10 20:44:56;;;;;;;;;17.00;17.00;;;;;29.48;43.48;100948.09;5014791;28;45694;-68
2023/09/10 20:50:47;;;;;;;;;21.50;20.25;;;;;29.27;43.89;100926.56;5014342;28;46774;-71
2023/09/10 20:53:12;;;;;;;;;23.00;20.25;;;;;29.32;44.45;100937.91;5031156;22;45589;-67
2023/09/10 20:55:43;;;;;;;;;19.25;17.50;;;;;29.19;44.48;100923.78;5033269;28;45471;-73
2023/09/10 20:58:49;;;;;;;;;19.75;19.75;;;;;29.35;44.51;100953.19;5041284;28;45423;-71
2023/09/10 21:01:15;;;;;;;;;23.25;21.00;;;;;29.16;44.53;100929.59;5026293;28;45791;-71
2023/09/10 21:03:43;;;;;;;;;18.75;17.75;;;;;29.22;44.84;100952.81;5046967;28;45746;-72
2023/09/10 21:06:09;;;;;;;;;24.25;20.75;;;;;28.93;44.85;100905.44;5038544;28;45756;-72
2023/09/10 21:08:34;;;;;;;;;20.50;18.00;;;;;29.13;44.67;100947.25;5041078;28;45390;-72
2023/09/10 21:11:03;;;;;;;;;17.75;17.75;;;;;29.09;45.08;100942.28;5040080;28;46389;-73
2023/09/10 21:13:31;;;;;;;;;21.25;19.50;;;;;28.83;45.31;100912.97;5041029;28;45376;-73
2023/09/10 21:16:04;;;;;;;;;17.75;17.50;;;;;28.83;45.33;100922.09;5039386;28;45404;-73
2023/09/10 21:18:30;;;;;;;;;21.00;21.00;;;;;29.08;45.33;100968.88;5040856;28;45658;-73
2023/09/10 21:21:05;;;;;;;;;23.75;23.75;;;;;28.77;45.80;100925.50;5041030;28;46127;-73
2023/09/10 21:23:33;;;;;;;;;27.25;25.75;;;;;28.80;45.88;100927.03;5040657;28;45611;-73
2023/09/10 21:26:03;;;;;;;;;25.25;23.25;;;;;28.88;46.22;100949.03;5041241;28;45499;-72
2023/09/10 21:28:28;;;;;;;;;22.25;20.75;;;;;28.56;46.22;100901.16;5040612;28;45502;-72
2023/09/10 21:30:56;;;;;;;;;19.50;18.50;;;;;28.63;46.26;100915.09;5038941;28;47207;-72
2023/09/10 21:33:22;;;;;;;;;20.75;19.25;;;;;28.80;46.43;100944.38;5040659;28;45321;-72
2023/09/10 21:35:49;;;;;;;;;25.25;22.75;;;;;28.70;46.67;100945.53;5019546;28;45659;-72
2023/09/10 21:38:15;;;;;;;;;20.50;20.00;;;;;28.65;46.41;100940.50;5039925;28;45259;-73
2023/09/10 21:40:41;;;;;;;;;19.00;18.00;;;;;28.57;46.80;100932.25;5039171;28;47518;-72
2023/09/10 21:43:07;;;;;;;;;20.25;20.00;;;;;28.55;46.66;100932.38;5055873;28;45463;-72
2023/09/10 21:45:37;;;;;;;;;21.25;18.25;;;;;28.60;47.30;100949.25;5040634;28;45555;-72
2023/09/10 21:48:05;;;;;;;;;20.25;17.75;;;;;28.49;46.93;100933.03;5040345;28;45435;-72
2023/09/10 21:50:33;;;;;;;;;17.25;17.00;;;;;28.54;46.90;100954.50;5040470;28;45650;-72
2023/09/10 21:52:58;;;;;;;;;18.50;18.00;;;;;28.48;46.64;100939.53;5055617;28;45977;-72
2023/09/10 21:55:24;;;;;;;;;18.75;18.75;;;;;28.54;47.08;100949.00;5038997;28;45457;-72
2023/09/10 21:57:49;;;;;;;;;15.00;12.75;;;;;28.68;46.94;100975.91;5028787;28;46753;-72
2023/09/10 22:00:17;;;;;;;;;18.00;16.75;;;;;28.59;47.04;100957.66;5039885;28;46594;-72
2023/09/10 22:02:43;;;;;;;;;16.50;15.00;;;;;28.43;47.20;100937.28;5040473;28;45568;-72
2023/09/10 22:05:13;;;;;;;;;15.50;15.50;;;;;28.59;47.85;100969.50;5040271;28;45561;-72
2023/09/10 22:07:39;;;;;;;;;18.25;16.25;;;;;28.59;47.47;100964.00;5039063;28;45447;-72
2023/09/10 22:10:05;;;;;;;;;16.25;16.25;;;;;28.53;47.99;100955.53;5039904;28;45491;-72
2023/09/10 22:12:30;;;;;;;;;15.00;15.00;;;;;28.43;47.50;100939.16;5040409;28;45840;-72
2023/09/10 22:15:03;;;;;;;;;16.25;15.00;;;;;28.36;48.27;100924.34;5039994;28;45338;-72
2023/09/10 22:17:28;;;;;;;;;16.25;16.25;;;;;28.64;48.36;100978.09;5040246;28;45455;-72
2023/09/10 22:19:53;;;;;;;;;17.75;16.25;;;;;28.32;48.29;100920.19;5055224;28;47467;-72
2023/09/10 22:22:19;;;;;;;;;17.25;15.50;;;;;28.59;48.08;100974.13;5038550;28;45564;-72
2023/09/10 22:24:48;;;;;;;;;19.75;18.00;;;;;28.42;48.70;100943.78;5040040;28;45337;-72
2023/09/10 22:27:13;;;;;;;;;17.25;16.75;;;;;28.40;48.85;100942.22;5040048;28;45496;-73
2023/09/10 22:29:38;;;;;;;;;21.25;20.00;;;;;28.44;49.10;100949.97;5039621;28;46665;-72
2023/09/10 22:32:04;;;;;;;;;18.75;17.50;;;;;28.33;48.89;100931.03;5039977;28;45479;-72
2023/09/10 22:34:30;;;;;;;;;19.00;19.00;;;;;28.60;48.98;100973.97;5033634;28;45517;-72
2023/09/10 22:36:55;;;;;;;;;21.00;21.00;;;;;28.49;49.73;100960.47;5039345;28;45524;-72
2023/09/10 22:39:21;;;;;;;;;17.75;17.75;;;;;28.54;49.08;100970.97;5038431;28;45974;-72
2023/09/10 22:41:46;;;;;;;;;18.25;16.25;;;;;28.50;50.11;100958.59;5038969;28;45499;-72
2023/09/10 22:44:12;;;;;;;;;18.25;17.25;;;;;28.42;50.34;100951.19;5039408;28;45390;-72
2023/09/10 22:46:37;;;;;;;;;20.00;18.25;;;;;28.66;49.65;100985.34;5038349;28;45670;-72
2023/09/10 22:49:04;;;;;;;;;17.75;16.75;;;;;28.49;49.98;100959.63;5037966;28;46911;-72
2023/09/10 22:51:30;;;;;;;;;17.25;17.25;;;;;28.62;49.67;100990.28;5039697;28;45391;-72
2023/09/10 22:53:58;;;;;;;;;18.00;18.00;;;;;28.54;50.88;100981.97;5039395;28;45312;-72
2023/09/10 22:56:24;;;;;;;;;19.50;19.50;;;;;28.46;50.60;100969.88;5029814;28;45618;-72
2023/09/10 22:58:50;;;;;;;;;9.25;8.25;;;;;28.50;50.93;100973.19;5035565;28;45533;-72
2023/09/10 23:01:16;;;;;;;;;21.00;19.25;;;;;28.48;50.71;100972.47;5039572;28;45492;-72
2023/09/10 23:03:42;;;;;;;;;20.75;19.75;;;;;28.44;50.58;100969.19;5039471;28;45466;-72
2023/09/10 23:06:07;;;;;;;;;17.00;17.00;;;;;28.56;51.09;100989.03;5039042;28;45403;-72
2023/09/10 23:08:35;;;;;;;;;17.75;17.00;;;;;28.55;51.16;100986.41;5037840;28;46212;-72
2023/09/10 23:11:04;;;;;;;;;19.50;19.50;;;;;28.28;51.05;100949.84;5036556;28;45555;-72
2023/09/10 23:13:30;;;;;;;;;22.50;20.75;;;;;28.57;51.48;100995.41;5039332;28;45329;-72
2023/09/10 23:15:55;;;;;;;;;17.25;17.00;;;;;28.41;51.59;100975.00;5038839;28;45695;-72
2023/09/10 23:18:21;;;;;;;;;22.00;21.25;;;;;28.52;51.79;100993.09;5038930;28;46106;-72
2023/09/10 23:20:46;;;;;;;;;19.75;19.00;;;;;28.19;51.75;100940.72;5039256;28;45429;-72
2023/09/10 23:23:12;;;;;;;;;22.25;22.25;;;;;28.41;52.19;100982.38;5038967;28;45767;-72
2023/09/10 23:25:37;;;;;;;;;25.50;22.50;;;;;28.37;52.39;100973.63;5039216;28;45688;-72
2023/09/10 23:28:05;;;;;;;;;20.50;19.50;;;;;28.17;52.32;100945.50;5038718;28;46043;-72
2023/09/10 23:30:30;;;;;;;;;18.50;16.50;;;;;28.39;52.35;100984.44;5039379;28;45250;-72
2023/09/10 23:33:00;;;;;;;;;20.75;20.75;;;;;28.16;52.53;100942.91;5038866;28;45932;-72
2023/09/10 23:35:26;;;;;;;;;20.25;20.25;;;;;28.22;52.47;100956.00;5032229;28;45668;-72
2023/09/10 23:37:51;;;;;;;;;21.75;20.75;;;;;28.35;53.03;100980.28;5038218;28;46553;-72
2023/09/10 23:40:17;;;;;;;;;20.00;20.00;;;;;28.20;53.06;100958.03;5038844;28;45375;-72
2023/09/10 23:42:42;;;;;;;;;21.25;20.25;;;;;28.27;52.69;100970.13;5038845;28;45616;-72
2023/09/10 23:45:10;;;;;;;;;19.25;18.75;;;;;28.30;52.77;100980.78;5038566;28;45487;-72
2023/09/10 23:47:38;;;;;;;;;22.50;19.50;;;;;28.20;53.37;100960.78;5038556;28;45410;-72
2023/09/10 23:50:03;;;;;;;;;20.50;19.75;;;;;28.19;53.05;100965.41;5036693;28;45397;-72
2023/09/10 23:52:31;;;;;;;;;22.00;20.25;;;;;28.23;53.06;100974.19;5038491;28;45270;-72
2023/09/10 23:54:56;;;;;;;;;20.00;18.00;;;;;28.06;53.50;100943.84;5038560;28;45542;-72
2023/09/10 23:57:22;;;;;;;;;17.75;17.75;;;;;28.11;53.55;100948.88;5025149;28;45371;-72
2023/09/10 23:59:47;;;;;;;;;19.25;19.00;;;;;28.27;53.74;100978.34;5038463;28;45473;-72
